sensor_id;sensor_type;location;lat;lon;timestamp;pressure;altitude;pressure_sealevel;temperature;humidity
38267;BME280;24063;51.794;19.578;2022-08-24T00:00:18;98713.52;;;18.70;100.00
38267;BME280;24063;51.794;19.578;2022-08-24T00:01:35;98712.67;;;18.69;100.00
38267;BME280;24063;51.794;19.578;2022-08-24T00:02:37;98710.86;;;18.68;100.00
38267;BME280;24063;51.794;19.578;2022-08-24T00:03:40;98713.98;;;18.66;100.00
38267;BME280;24063;51.794;19.578;2022-08-24T00:04:42;98709.13;;;18.64;100.00
38267;BME280;24063;51.794;19.578;2022-08-24T00:05:47;98709.48;;;18.63;100.00
38267;BME280;24063;51.794;19.578;2022-08-24T00:06:49;98710.87;;;18.63;100.00
38267;BME280;24063;51.794;19.578;2022-08-24T00:07:51;98707.36;;;18.63;100.00
38267;BME280;24063;51.794;19.578;2022-08-24T00:08:56;98705.10;;;18.62;100.00
38267;BME280;24063;51.794;19.578;2022-08-24T00:09:58;98705.39;;;18.61;100.00
38267;BME280;24063;51.794;19.578;2022-08-24T00:11:01;98707.85;;;18.60;100.00
38267;BME280;24063;51.794;19.578;2022-08-24T00:12:03;98703.43;;;18.60;100.00
38267;BME280;24063;51.794;19.578;2022-08-24T00:13:05;98702.11;;;18.58;100.00
38267;BME280;24063;51.794;19.578;2022-08-24T00:14:08;98702.79;;;18.57;100.00
38267;BME280;24063;51.794;19.578;2022-08-24T00:15:11;98703.55;;;18.56;100.00
38267;BME280;24063;51.794;19.578;2022-08-24T00:16:15;98701.80;;;18.56;100.00
38267;BME280;24063;51.794;19.578;2022-08-24T00:17:17;98705.16;;;18.56;100.00
38267;BME280;24063;51.794;19.578;2022-08-24T00:18:21;98704.45;;;18.56;100.00
38267;BME280;24063;51.794;19.578;2022-08-24T00:19:24;98704.56;;;18.57;100.00
38267;BME280;24063;51.794;19.578;2022-08-24T00:20:27;98704.80;;;18.56;100.00
38267;BME280;24063;51.794;19.578;2022-08-24T00:21:29;98701.60;;;18.57;100.00
38267;BME280;24063;51.794;19.578;2022-08-24T00:22:31;98704.19;;;18.57;100.00
38267;BME280;24063;51.794;19.578;2022-08-24T00:23:34;98701.00;;;18.55;100.00
38267;BME280;24063;51.794;19.578;2022-08-24T00:24:36;98698.30;;;18.55;100.00
38267;BME280;24063;51.794;19.578;2022-08-24T00:25:38;98697.23;;;18.53;100.00
38267;BME280;24063;51.794;19.578;2022-08-24T00:26:40;98698.29;;;18.53;100.00
38267;BME280;24063;51.794;19.578;2022-08-24T00:27:42;98699.13;;;18.52;100.00
38267;BME280;24063;51.794;19.578;2022-08-24T00:28:44;98701.71;;;18.52;100.00
38267;BME280;24063;51.794;19.578;2022-08-24T00:29:47;98700.27;;;18.51;100.00
38267;BME280;24063;51.794;19.578;2022-08-24T00:30:50;98699.59;;;18.50;100.00
38267;BME280;24063;51.794;19.578;2022-08-24T00:31:52;98703.45;;;18.51;100.00
38267;BME280;24063;51.794;19.578;2022-08-24T00:32:54;98700.45;;;18.50;100.00
38267;BME280;24063;51.794;19.578;2022-08-24T00:33:56;98697.95;;;18.50;100.00
38267;BME280;24063;51.794;19.578;2022-08-24T00:34:59;98703.90;;;18.50;100.00
38267;BME280;24063;51.794;19.578;2022-08-24T00:36:03;98699.36;;;18.50;100.00
38267;BME280;24063;51.794;19.578;2022-08-24T00:37:05;98699.10;;;18.51;100.00
38267;BME280;24063;51.794;19.578;2022-08-24T00:38:07;98698.67;;;18.53;100.00
38267;BME280;24063;51.794;19.578;2022-08-24T00:39:11;98697.55;;;18.52;100.00
38267;BME280;24063;51.794;19.578;2022-08-24T00:40:20;98701.61;;;18.52;100.00
38267;BME280;24063;51.794;19.578;2022-08-24T00:41:23;98698.40;;;18.49;100.00
38267;BME280;24063;51.794;19.578;2022-08-24T00:42:25;98694.83;;;18.48;100.00
38267;BME280;24063;51.794;19.578;2022-08-24T00:43:27;98692.23;;;18.46;100.00
38267;BME280;24063;51.794;19.578;2022-08-24T00:44:29;98693.45;;;18.45;100.00
38267;BME280;24063;51.794;19.578;2022-08-24T00:45:40;98691.67;;;18.44;100.00
38267;BME280;24063;51.794;19.578;2022-08-24T00:46:49;98688.23;;;18.42;100.00
38267;BME280;24063;51.794;19.578;2022-08-24T00:48:04;98689.50;;;18.42;100.00
38267;BME280;24063;51.794;19.578;2022-08-24T00:50:30;98683.58;;;18.41;100.00
38267;BME280;24063;51.794;19.578;2022-08-24T00:51:50;98686.15;;;18.41;100.00
38267;BME280;24063;51.794;19.578;2022-08-24T00:52:59;98685.09;;;18.40;100.00
38267;BME280;24063;51.794;19.578;2022-08-24T00:54:11;98692.05;;;18.40;100.00
38267;BME280;24063;51.794;19.578;2022-08-24T00:55:21;98687.94;;;18.39;100.00
38267;BME280;24063;51.794;19.578;2022-08-24T00:56:40;98688.44;;;18.38;100.00
38267;BME280;24063;51.794;19.578;2022-08-24T00:57:47;98686.77;;;18.37;100.00
38267;BME280;24063;51.794;19.578;2022-08-24T00:58:55;98689.40;;;18.37;100.00
38267;BME280;24063;51.794;19.578;2022-08-24T01:00:06;98689.27;;;18.36;100.00
38267;BME280;24063;51.794;19.578;2022-08-24T01:01:10;98690.98;;;18.35;100.00
38267;BME280;24063;51.794;19.578;2022-08-24T01:02:21;98689.18;;;18.35;100.00
38267;BME280;24063;51.794;19.578;2022-08-24T01:03:25;98691.44;;;18.37;100.00
38267;BME280;24063;51.794;19.578;2022-08-24T01:04:36;98692.59;;;18.38;100.00
38267;BME280;24063;51.794;19.578;2022-08-24T01:05:40;98691.14;;;18.39;100.00
38267;BME280;24063;51.794;19.578;2022-08-24T01:06:42;98694.73;;;18.40;100.00
38267;BME280;24063;51.794;19.578;2022-08-24T01:07:45;98691.92;;;18.40;100.00
38267;BME280;24063;51.794;19.578;2022-08-24T01:08:51;98694.19;;;18.41;100.00
38267;BME280;24063;51.794;19.578;2022-08-24T01:10:04;98692.20;;;18.40;100.00
38267;BME280;24063;51.794;19.578;2022-08-24T01:11:11;98692.81;;;18.40;100.00
38267;BME280;24063;51.794;19.578;2022-08-24T01:12:16;98693.20;;;18.41;100.00
38267;BME280;24063;51.794;19.578;2022-08-24T01:13:18;98695.52;;;18.44;100.00
38267;BME280;24063;51.794;19.578;2022-08-24T01:14:23;98695.67;;;18.46;100.00
38267;BME280;24063;51.794;19.578;2022-08-24T01:15:25;98693.92;;;18.45;100.00
38267;BME280;24063;51.794;19.578;2022-08-24T01:16:27;98696.77;;;18.44;100.00
38267;BME280;24063;51.794;19.578;2022-08-24T01:17:48;98690.91;;;18.42;100.00
38267;BME280;24063;51.794;19.578;2022-08-24T01:19:25;98689.30;;;18.40;100.00
38267;BME280;24063;51.794;19.578;2022-08-24T01:20:30;98690.96;;;18.38;100.00
38267;BME280;24063;51.794;19.578;2022-08-24T01:21:48;98686.13;;;18.37;100.00
38267;BME280;24063;51.794;19.578;2022-08-24T01:23:06;98681.91;;;18.37;100.00
38267;BME280;24063;51.794;19.578;2022-08-24T01:24:12;98678.85;;;18.37;100.00
38267;BME280;24063;51.794;19.578;2022-08-24T01:25:15;98676.39;;;18.36;100.00
38267;BME280;24063;51.794;19.578;2022-08-24T01:26:22;98674.95;;;18.35;100.00
38267;BME280;24063;51.794;19.578;2022-08-24T01:27:27;98673.19;;;18.34;100.00
38267;BME280;24063;51.794;19.578;2022-08-24T01:28:30;98670.52;;;18.34;100.00
38267;BME280;24063;51.794;19.578;2022-08-24T01:29:34;98676.64;;;18.32;100.00
38267;BME280;24063;51.794;19.578;2022-08-24T01:30:36;98671.96;;;18.33;100.00
38267;BME280;24063;51.794;19.578;2022-08-24T01:31:39;98671.88;;;18.33;100.00
38267;BME280;24063;51.794;19.578;2022-08-24T01:32:52;98674.70;;;18.33;100.00
38267;BME280;24063;51.794;19.578;2022-08-24T01:33:55;98672.23;;;18.34;100.00
38267;BME280;24063;51.794;19.578;2022-08-24T01:34:57;98673.64;;;18.35;100.00
38267;BME280;24063;51.794;19.578;2022-08-24T01:36:29;98670.36;;;18.37;100.00
38267;BME280;24063;51.794;19.578;2022-08-24T01:37:31;98674.98;;;18.38;100.00
38267;BME280;24063;51.794;19.578;2022-08-24T01:38:34;98677.05;;;18.38;100.00
38267;BME280;24063;51.794;19.578;2022-08-24T01:39:44;98676.20;;;18.39;100.00
38267;BME280;24063;51.794;19.578;2022-08-24T01:40:52;98679.95;;;18.40;100.00
38267;BME280;24063;51.794;19.578;2022-08-24T01:41:56;98680.77;;;18.41;100.00
38267;BME280;24063;51.794;19.578;2022-08-24T01:42:58;98681.84;;;18.42;100.00
38267;BME280;24063;51.794;19.578;2022-08-24T01:44:00;98681.14;;;18.43;100.00
38267;BME280;24063;51.794;19.578;2022-08-24T01:45:04;98680.50;;;18.46;100.00
38267;BME280;24063;51.794;19.578;2022-08-24T01:46:06;98683.65;;;18.48;100.00
38267;BME280;24063;51.794;19.578;2022-08-24T01:47:11;98684.63;;;18.49;100.00
38267;BME280;24063;51.794;19.578;2022-08-24T01:48:13;98690.19;;;18.49;100.00
38267;BME280;24063;51.794;19.578;2022-08-24T01:49:28;98690.35;;;18.49;100.00
38267;BME280;24063;51.794;19.578;2022-08-24T01:50:32;98693.70;;;18.51;100.00
38267;BME280;24063;51.794;19.578;2022-08-24T01:51:35;98697.65;;;18.52;100.00
38267;BME280;24063;51.794;19.578;2022-08-24T01:52:39;98700.27;;;18.51;100.00
38267;BME280;24063;51.794;19.578;2022-08-24T01:54:03;98702.39;;;18.49;100.00
38267;BME280;24063;51.794;19.578;2022-08-24T01:55:08;98703.62;;;18.47;100.00
38267;BME280;24063;51.794;19.578;2022-08-24T01:56:10;98704.27;;;18.46;100.00
38267;BME280;24063;51.794;19.578;2022-08-24T01:57:12;98705.88;;;18.45;100.00
38267;BME280;24063;51.794;19.578;2022-08-24T01:58:17;98712.73;;;18.44;100.00
38267;BME280;24063;51.794;19.578;2022-08-24T01:59:19;98713.34;;;18.42;100.00
38267;BME280;24063;51.794;19.578;2022-08-24T02:00:21;98714.84;;;18.41;100.00
38267;BME280;24063;51.794;19.578;2022-08-24T02:01:26;98718.28;;;18.39;100.00
38267;BME280;24063;51.794;19.578;2022-08-24T02:02:30;98719.16;;;18.38;100.00
38267;BME280;24063;51.794;19.578;2022-08-24T02:03:33;98723.47;;;18.36;100.00
38267;BME280;24063;51.794;19.578;2022-08-24T02:04:36;98722.02;;;18.35;100.00
38267;BME280;24063;51.794;19.578;2022-08-24T02:05:38;98722.27;;;18.34;100.00
38267;BME280;24063;51.794;19.578;2022-08-24T02:06:42;98721.60;;;18.33;100.00
38267;BME280;24063;51.794;19.578;2022-08-24T02:07:47;98720.98;;;18.31;100.00
38267;BME280;24063;51.794;19.578;2022-08-24T02:08:49;98718.42;;;18.30;100.00
38267;BME280;24063;51.794;19.578;2022-08-24T02:09:51;98718.97;;;18.28;100.00
38267;BME280;24063;51.794;19.578;2022-08-24T02:10:53;98721.38;;;18.29;100.00
38267;BME280;24063;51.794;19.578;2022-08-24T02:11:57;98725.92;;;18.29;100.00
38267;BME280;24063;51.794;19.578;2022-08-24T02:12:59;98727.44;;;18.28;100.00
38267;BME280;24063;51.794;19.578;2022-08-24T02:14:03;98729.46;;;18.28;100.00
38267;BME280;24063;51.794;19.578;2022-08-24T02:15:07;98728.11;;;18.28;100.00
38267;BME280;24063;51.794;19.578;2022-08-24T02:16:10;98726.56;;;18.28;100.00
38267;BME280;24063;51.794;19.578;2022-08-24T02:17:12;98725.41;;;18.27;100.00
38267;BME280;24063;51.794;19.578;2022-08-24T02:18:13;98726.73;;;18.27;100.00
38267;BME280;24063;51.794;19.578;2022-08-24T02:19:16;98726.56;;;18.26;100.00
38267;BME280;24063;51.794;19.578;2022-08-24T02:20:18;98723.95;;;18.26;100.00
38267;BME280;24063;51.794;19.578;2022-08-24T02:21:23;98722.89;;;18.27;100.00
38267;BME280;24063;51.794;19.578;2022-08-24T02:22:26;98725.86;;;18.28;100.00
38267;BME280;24063;51.794;19.578;2022-08-24T02:23:28;98725.27;;;18.29;100.00
38267;BME280;24063;51.794;19.578;2022-08-24T02:24:30;98729.27;;;18.31;100.00
38267;BME280;24063;51.794;19.578;2022-08-24T02:25:32;98730.33;;;18.32;100.00
38267;BME280;24063;51.794;19.578;2022-08-24T02:26:34;98729.53;;;18.33;100.00
38267;BME280;24063;51.794;19.578;2022-08-24T02:27:36;98731.23;;;18.35;100.00
38267;BME280;24063;51.794;19.578;2022-08-24T02:28:39;98733.36;;;18.37;100.00
38267;BME280;24063;51.794;19.578;2022-08-24T02:29:42;98729.91;;;18.37;100.00
38267;BME280;24063;51.794;19.578;2022-08-24T02:30:43;98730.84;;;18.35;100.00
38267;BME280;24063;51.794;19.578;2022-08-24T02:31:45;98735.11;;;18.35;100.00
38267;BME280;24063;51.794;19.578;2022-08-24T02:32:47;98732.33;;;18.33;100.00
38267;BME280;24063;51.794;19.578;2022-08-24T02:33:49;98734.06;;;18.34;100.00
38267;BME280;24063;51.794;19.578;2022-08-24T02:34:51;98736.80;;;18.34;100.00
38267;BME280;24063;51.794;19.578;2022-08-24T02:35:56;98734.29;;;18.33;100.00
38267;BME280;24063;51.794;19.578;2022-08-24T02:36:57;98733.00;;;18.33;100.00
38267;BME280;24063;51.794;19.578;2022-08-24T02:38:00;98735.71;;;18.32;100.00
38267;BME280;24063;51.794;19.578;2022-08-24T02:39:05;98730.59;;;18.29;100.00
38267;BME280;24063;51.794;19.578;2022-08-24T02:40:08;98736.48;;;18.28;100.00
38267;BME280;24063;51.794;19.578;2022-08-24T02:41:11;98737.67;;;18.26;100.00
38267;BME280;24063;51.794;19.578;2022-08-24T02:42:13;98738.39;;;18.25;100.00
38267;BME280;24063;51.794;19.578;2022-08-24T02:43:15;98738.80;;;18.24;100.00
38267;BME280;24063;51.794;19.578;2022-08-24T02:44:19;98737.80;;;18.23;100.00
38267;BME280;24063;51.794;19.578;2022-08-24T02:45:21;98740.98;;;18.22;100.00
38267;BME280;24063;51.794;19.578;2022-08-24T02:46:26;98741.32;;;18.21;100.00
38267;BME280;24063;51.794;19.578;2022-08-24T02:47:29;98744.98;;;18.22;100.00
38267;BME280;24063;51.794;19.578;2022-08-24T02:48:39;98743.46;;;18.23;100.00
38267;BME280;24063;51.794;19.578;2022-08-24T02:49:42;98747.98;;;18.25;100.00
38267;BME280;24063;51.794;19.578;2022-08-24T02:50:47;98748.30;;;18.26;100.00
38267;BME280;24063;51.794;19.578;2022-08-24T02:51:49;98748.61;;;18.27;100.00
38267;BME280;24063;51.794;19.578;2022-08-24T02:52:53;98751.64;;;18.24;100.00
38267;BME280;24063;51.794;19.578;2022-08-24T02:53:57;98751.28;;;18.25;100.00
38267;BME280;24063;51.794;19.578;2022-08-24T02:55:00;98747.73;;;18.24;100.00
38267;BME280;24063;51.794;19.578;2022-08-24T02:56:02;98743.83;;;18.23;100.00
38267;BME280;24063;51.794;19.578;2022-08-24T02:57:05;98744.60;;;18.21;100.00
38267;BME280;24063;51.794;19.578;2022-08-24T02:58:09;98743.61;;;18.21;100.00
38267;BME280;24063;51.794;19.578;2022-08-24T02:59:11;98745.10;;;18.20;100.00
38267;BME280;24063;51.794;19.578;2022-08-24T03:00:17;98740.48;;;18.20;100.00
38267;BME280;24063;51.794;19.578;2022-08-24T03:01:24;98746.43;;;18.20;100.00
38267;BME280;24063;51.794;19.578;2022-08-24T03:02:31;98746.44;;;18.20;100.00
38267;BME280;24063;51.794;19.578;2022-08-24T03:03:34;98750.10;;;18.19;100.00
38267;BME280;24063;51.794;19.578;2022-08-24T03:04:36;98749.42;;;18.20;100.00
38267;BME280;24063;51.794;19.578;2022-08-24T03:05:38;98753.00;;;18.23;100.00
38267;BME280;24063;51.794;19.578;2022-08-24T03:06:40;98749.86;;;18.24;100.00
38267;BME280;24063;51.794;19.578;2022-08-24T03:07:43;98751.55;;;18.24;100.00
38267;BME280;24063;51.794;19.578;2022-08-24T03:08:45;98751.92;;;18.22;100.00
38267;BME280;24063;51.794;19.578;2022-08-24T03:09:57;98751.71;;;18.21;100.00
38267;BME280;24063;51.794;19.578;2022-08-24T03:10:59;98744.92;;;18.19;100.00
38267;BME280;24063;51.794;19.578;2022-08-24T03:12:01;98746.94;;;18.17;100.00
38267;BME280;24063;51.794;19.578;2022-08-24T03:13:03;98746.37;;;18.15;100.00
38267;BME280;24063;51.794;19.578;2022-08-24T03:14:05;98746.23;;;18.14;100.00
38267;BME280;24063;51.794;19.578;2022-08-24T03:15:11;98745.42;;;18.11;100.00
38267;BME280;24063;51.794;19.578;2022-08-24T03:16:13;98746.77;;;18.10;100.00
38267;BME280;24063;51.794;19.578;2022-08-24T03:17:15;98748.45;;;18.09;100.00
38267;BME280;24063;51.794;19.578;2022-08-24T03:18:17;98744.48;;;18.08;100.00
38267;BME280;24063;51.794;19.578;2022-08-24T03:19:26;98740.56;;;18.06;100.00
38267;BME280;24063;51.794;19.578;2022-08-24T03:20:28;98740.58;;;18.04;100.00
38267;BME280;24063;51.794;19.578;2022-08-24T03:21:30;98740.98;;;18.01;100.00
38267;BME280;24063;51.794;19.578;2022-08-24T03:22:33;98740.86;;;18.00;100.00
38267;BME280;24063;51.794;19.578;2022-08-24T03:23:35;98739.39;;;17.99;100.00
38267;BME280;24063;51.794;19.578;2022-08-24T03:24:37;98741.27;;;17.97;100.00
38267;BME280;24063;51.794;19.578;2022-08-24T03:25:40;98741.20;;;17.96;100.00
38267;BME280;24063;51.794;19.578;2022-08-24T03:26:42;98739.66;;;17.95;100.00
38267;BME280;24063;51.794;19.578;2022-08-24T03:27:45;98745.30;;;17.95;100.00
38267;BME280;24063;51.794;19.578;2022-08-24T03:28:47;98744.98;;;17.94;100.00
38267;BME280;24063;51.794;19.578;2022-08-24T03:29:50;98746.84;;;17.96;100.00
38267;BME280;24063;51.794;19.578;2022-08-24T03:30:52;98748.23;;;17.99;100.00
38267;BME280;24063;51.794;19.578;2022-08-24T03:31:54;98746.83;;;18.01;100.00
38267;BME280;24063;51.794;19.578;2022-08-24T03:32:59;98749.91;;;18.03;100.00
38267;BME280;24063;51.794;19.578;2022-08-24T03:34:02;98751.35;;;18.04;100.00
38267;BME280;24063;51.794;19.578;2022-08-24T03:35:05;98750.77;;;18.05;100.00
38267;BME280;24063;51.794;19.578;2022-08-24T03:36:07;98756.52;;;18.05;100.00
38267;BME280;24063;51.794;19.578;2022-08-24T03:37:14;98754.70;;;18.06;100.00
38267;BME280;24063;51.794;19.578;2022-08-24T03:38:16;98759.20;;;18.06;100.00
38267;BME280;24063;51.794;19.578;2022-08-24T03:39:19;98759.34;;;18.06;100.00
38267;BME280;24063;51.794;19.578;2022-08-24T03:40:22;98759.10;;;18.06;100.00
38267;BME280;24063;51.794;19.578;2022-08-24T03:41:27;98761.75;;;18.06;100.00
38267;BME280;24063;51.794;19.578;2022-08-24T03:42:29;98763.70;;;18.06;100.00
38267;BME280;24063;51.794;19.578;2022-08-24T03:43:33;98763.71;;;18.06;100.00
38267;BME280;24063;51.794;19.578;2022-08-24T03:44:48;98766.29;;;18.06;100.00
38267;BME280;24063;51.794;19.578;2022-08-24T03:45:50;98766.92;;;18.06;100.00
38267;BME280;24063;51.794;19.578;2022-08-24T03:46:52;98764.41;;;18.06;100.00
38267;BME280;24063;51.794;19.578;2022-08-24T03:47:55;98766.64;;;18.07;100.00
38267;BME280;24063;51.794;19.578;2022-08-24T03:48:58;98765.33;;;18.07;100.00
38267;BME280;24063;51.794;19.578;2022-08-24T03:50:00;98767.21;;;18.07;100.00
38267;BME280;24063;51.794;19.578;2022-08-24T03:51:03;98767.45;;;18.07;100.00
38267;BME280;24063;51.794;19.578;2022-08-24T03:52:05;98768.41;;;18.06;100.00
38267;BME280;24063;51.794;19.578;2022-08-24T03:53:07;98767.60;;;18.05;100.00
38267;BME280;24063;51.794;19.578;2022-08-24T03:54:10;98770.08;;;18.05;100.00
38267;BME280;24063;51.794;19.578;2022-08-24T03:55:13;98766.77;;;18.04;100.00
38267;BME280;24063;51.794;19.578;2022-08-24T03:56:15;98767.77;;;18.05;100.00
38267;BME280;24063;51.794;19.578;2022-08-24T03:57:18;98769.09;;;18.05;100.00
38267;BME280;24063;51.794;19.578;2022-08-24T03:58:20;98769.66;;;18.06;100.00
38267;BME280;24063;51.794;19.578;2022-08-24T03:59:22;98768.83;;;18.08;100.00
38267;BME280;24063;51.794;19.578;2022-08-24T04:00:27;98771.98;;;18.11;100.00
38267;BME280;24063;51.794;19.578;2022-08-24T04:01:29;98764.55;;;18.13;100.00
38267;BME280;24063;51.794;19.578;2022-08-24T04:02:31;98763.16;;;18.13;100.00
38267;BME280;24063;51.794;19.578;2022-08-24T04:03:36;98762.52;;;18.14;100.00
38267;BME280;24063;51.794;19.578;2022-08-24T04:04:38;98758.98;;;18.16;100.00
38267;BME280;24063;51.794;19.578;2022-08-24T04:05:40;98762.91;;;18.16;100.00
38267;BME280;24063;51.794;19.578;2022-08-24T04:06:43;98759.63;;;18.16;100.00
38267;BME280;24063;51.794;19.578;2022-08-24T04:07:47;98763.62;;;18.16;100.00
38267;BME280;24063;51.794;19.578;2022-08-24T04:08:50;98759.25;;;18.16;100.00
38267;BME280;24063;51.794;19.578;2022-08-24T04:09:53;98761.34;;;18.16;100.00
38267;BME280;24063;51.794;19.578;2022-08-24T04:10:57;98762.30;;;18.16;100.00
38267;BME280;24063;51.794;19.578;2022-08-24T04:11:58;98760.46;;;18.16;100.00
38267;BME280;24063;51.794;19.578;2022-08-24T04:13:00;98765.10;;;18.16;100.00
38267;BME280;24063;51.794;19.578;2022-08-24T04:14:03;98763.59;;;18.16;100.00
38267;BME280;24063;51.794;19.578;2022-08-24T04:15:05;98762.92;;;18.15;100.00
38267;BME280;24063;51.794;19.578;2022-08-24T04:16:15;98762.81;;;18.16;100.00
38267;BME280;24063;51.794;19.578;2022-08-24T04:17:18;98760.82;;;18.17;100.00
38267;BME280;24063;51.794;19.578;2022-08-24T04:18:20;98762.72;;;18.19;100.00
38267;BME280;24063;51.794;19.578;2022-08-24T04:19:29;98761.16;;;18.23;100.00
38267;BME280;24063;51.794;19.578;2022-08-24T04:20:37;98766.77;;;18.25;100.00
38267;BME280;24063;51.794;19.578;2022-08-24T04:21:39;98768.52;;;18.29;100.00
38267;BME280;24063;51.794;19.578;2022-08-24T04:22:41;98771.61;;;18.32;100.00
38267;BME280;24063;51.794;19.578;2022-08-24T04:23:46;98770.83;;;18.34;100.00
38267;BME280;24063;51.794;19.578;2022-08-24T04:24:50;98775.84;;;18.35;100.00
38267;BME280;24063;51.794;19.578;2022-08-24T04:25:52;98775.96;;;18.36;100.00
38267;BME280;24063;51.794;19.578;2022-08-24T04:26:54;98773.14;;;18.39;100.00
38267;BME280;24063;51.794;19.578;2022-08-24T04:27:58;98775.04;;;18.41;100.00
38267;BME280;24063;51.794;19.578;2022-08-24T04:29:00;98779.02;;;18.43;100.00
38267;BME280;24063;51.794;19.578;2022-08-24T04:30:09;98774.95;;;18.44;100.00
38267;BME280;24063;51.794;19.578;2022-08-24T04:31:57;98774.35;;;18.43;100.00
38267;BME280;24063;51.794;19.578;2022-08-24T04:32:59;98778.23;;;18.44;100.00
38267;BME280;24063;51.794;19.578;2022-08-24T04:34:01;98775.98;;;18.44;100.00
38267;BME280;24063;51.794;19.578;2022-08-24T04:35:04;98776.63;;;18.44;100.00
38267;BME280;24063;51.794;19.578;2022-08-24T04:36:08;98775.59;;;18.44;100.00
38267;BME280;24063;51.794;19.578;2022-08-24T04:37:13;98773.88;;;18.44;100.00
38267;BME280;24063;51.794;19.578;2022-08-24T04:38:17;98773.23;;;18.44;100.00
38267;BME280;24063;51.794;19.578;2022-08-24T04:39:31;98778.45;;;18.45;100.00
38267;BME280;24063;51.794;19.578;2022-08-24T04:40:49;98774.47;;;18.47;100.00
38267;BME280;24063;51.794;19.578;2022-08-24T04:41:51;98774.52;;;18.48;100.00
38267;BME280;24063;51.794;19.578;2022-08-24T04:42:54;98776.52;;;18.51;100.00
38267;BME280;24063;51.794;19.578;2022-08-24T04:43:56;98778.31;;;18.55;100.00
38267;BME280;24063;51.794;19.578;2022-08-24T04:44:58;98775.83;;;18.57;100.00
38267;BME280;24063;51.794;19.578;2022-08-24T04:46:06;98778.34;;;18.61;100.00
38267;BME280;24063;51.794;19.578;2022-08-24T04:47:08;98778.85;;;18.65;100.00
38267;BME280;24063;51.794;19.578;2022-08-24T04:48:12;98778.45;;;18.68;100.00
38267;BME280;24063;51.794;19.578;2022-08-24T04:49:15;98773.49;;;18.71;100.00
38267;BME280;24063;51.794;19.578;2022-08-24T04:50:17;98774.33;;;18.75;100.00
38267;BME280;24063;51.794;19.578;2022-08-24T04:51:24;98777.51;;;18.78;100.00
38267;BME280;24063;51.794;19.578;2022-08-24T04:52:27;98774.19;;;18.80;100.00
38267;BME280;24063;51.794;19.578;2022-08-24T04:53:30;98778.88;;;18.83;100.00
38267;BME280;24063;51.794;19.578;2022-08-24T04:54:32;98779.33;;;18.86;100.00
38267;BME280;24063;51.794;19.578;2022-08-24T04:55:48;98774.20;;;18.91;100.00
38267;BME280;24063;51.794;19.578;2022-08-24T04:56:51;98775.15;;;18.95;100.00
38267;BME280;24063;51.794;19.578;2022-08-24T04:57:52;98771.75;;;18.98;100.00
38267;BME280;24063;51.794;19.578;2022-08-24T04:58:54;98776.42;;;19.03;100.00
38267;BME280;24063;51.794;19.578;2022-08-24T04:59:56;98777.12;;;19.07;100.00
38267;BME280;24063;51.794;19.578;2022-08-24T05:00:58;98781.28;;;19.11;100.00
38267;BME280;24063;51.794;19.578;2022-08-24T05:02:01;98782.70;;;19.16;100.00
38267;BME280;24063;51.794;19.578;2022-08-24T05:03:02;98782.96;;;19.23;100.00
38267;BME280;24063;51.794;19.578;2022-08-24T05:04:05;98785.14;;;19.32;100.00
38267;BME280;24063;51.794;19.578;2022-08-24T05:05:08;98792.84;;;19.41;100.00
38267;BME280;24063;51.794;19.578;2022-08-24T05:06:12;98790.78;;;19.48;100.00
38267;BME280;24063;51.794;19.578;2022-08-24T05:07:16;98791.56;;;19.53;100.00
38267;BME280;24063;51.794;19.578;2022-08-24T05:08:19;98795.64;;;19.57;100.00
38267;BME280;24063;51.794;19.578;2022-08-24T05:09:21;98794.25;;;19.58;100.00
38267;BME280;24063;51.794;19.578;2022-08-24T05:10:23;98794.06;;;19.57;100.00
38267;BME280;24063;51.794;19.578;2022-08-24T05:11:28;98796.46;;;19.54;100.00
38267;BME280;24063;51.794;19.578;2022-08-24T05:12:30;98798.27;;;19.50;100.00
38267;BME280;24063;51.794;19.578;2022-08-24T05:13:35;98796.30;;;19.48;100.00
38267;BME280;24063;51.794;19.578;2022-08-24T05:14:38;98797.50;;;19.47;100.00
38267;BME280;24063;51.794;19.578;2022-08-24T05:15:41;98797.44;;;19.46;100.00
38267;BME280;24063;51.794;19.578;2022-08-24T05:16:44;98794.73;;;19.44;100.00
38267;BME280;24063;51.794;19.578;2022-08-24T05:17:53;98796.91;;;19.44;100.00
38267;BME280;24063;51.794;19.578;2022-08-24T05:18:55;98795.52;;;19.42;100.00
38267;BME280;24063;51.794;19.578;2022-08-24T05:19:57;98792.46;;;19.41;100.00
38267;BME280;24063;51.794;19.578;2022-08-24T05:20:59;98791.44;;;19.39;100.00
38267;BME280;24063;51.794;19.578;2022-08-24T05:22:01;98794.42;;;19.37;100.00
38267;BME280;24063;51.794;19.578;2022-08-24T05:23:04;98793.02;;;19.35;100.00
38267;BME280;24063;51.794;19.578;2022-08-24T05:24:11;98796.88;;;19.32;100.00
38267;BME280;24063;51.794;19.578;2022-08-24T05:25:14;98798.77;;;19.30;100.00
38267;BME280;24063;51.794;19.578;2022-08-24T05:26:23;98800.39;;;19.28;100.00
38267;BME280;24063;51.794;19.578;2022-08-24T05:27:27;98795.61;;;19.26;100.00
38267;BME280;24063;51.794;19.578;2022-08-24T05:28:30;98798.66;;;19.26;100.00
38267;BME280;24063;51.794;19.578;2022-08-24T05:29:32;98794.83;;;19.24;100.00
38267;BME280;24063;51.794;19.578;2022-08-24T05:30:35;98796.80;;;19.23;100.00
38267;BME280;24063;51.794;19.578;2022-08-24T05:31:44;98793.38;;;19.21;100.00
38267;BME280;24063;51.794;19.578;2022-08-24T05:32:46;98791.16;;;19.19;100.00
38267;BME280;24063;51.794;19.578;2022-08-24T05:33:50;98788.20;;;19.17;100.00